Time;durP1;ratioP1;P1;durP2;ratioP2;P2;SDS_P1;SDS_P2;PMS_P1;PMS_P2;Temp;Humidity;BMP_temperature;BMP_pressure;BME280_temperature;BME280_humidity;BME280_pressure;Samples;Min_cycle;Max_cycle;Signal;HPM_P1;HPM_P2
2024/04/01 00:01:22;;;;;;;6.35;4.20;;;12.90;80.90;;;;;;4988927;28;20291;-63
2024/04/01 00:03:47;;;;;;;8.27;4.20;;;12.90;81.00;;;;;;4991631;28;20030;-62
2024/04/01 00:06:13;;;;;;;7.45;4.55;;;12.80;81.00;;;;;;4992016;28;20026;-62
2024/04/01 00:08:39;;;;;;;7.15;4.20;;;12.80;81.00;;;;;;4989451;28;20643;-63
2024/04/01 00:11:05;;;;;;;9.55;4.60;;;12.80;81.00;;;;;;4991127;28;20121;-62
2024/04/01 00:13:30;;;;;;;11.90;4.43;;;12.70;80.90;;;;;;4967698;28;20585;-67
2024/04/01 00:15:56;;;;;;;7.97;4.88;;;12.70;80.90;;;;;;4992194;28;20062;-67
2024/04/01 00:18:22;;;;;;;10.07;5.22;;;12.70;80.90;;;;;;4991729;28;20791;-63
2024/04/01 00:20:56;;;;;;;6.55;4.28;;;12.60;80.90;;;;;;4991186;28;20077;-63
2024/04/01 00:23:25;;;;;;;5.38;4.13;;;12.70;80.90;;;;;;4989540;28;20768;-63
2024/04/01 00:25:51;;;;;;;11.10;4.70;;;12.60;80.80;;;;;;4990746;28;20059;-63
2024/04/01 00:28:17;;;;;;;7.38;4.40;;;12.60;80.90;;;;;;4991494;28;20030;-63
2024/04/01 00:30:43;;;;;;;8.52;4.78;;;12.60;80.90;;;;;;4991189;28;20038;-63
2024/04/01 00:33:09;;;;;;;7.40;4.95;;;12.50;80.80;;;;;;4986592;28;20502;-68
2024/04/01 00:35:41;;;;;;;7.93;4.72;;;12.50;80.70;;;;;;4990917;28;20039;-63
2024/04/01 00:38:07;;;;;;;6.55;4.50;;;12.50;80.70;;;;;;4987944;28;20064;-63
2024/04/01 00:40:36;;;;;;;7.40;4.47;;;12.40;80.70;;;;;;4966745;28;20034;-63
2024/04/01 00:43:09;;;;;;;6.80;4.30;;;12.40;80.70;;;;;;4985435;28;20069;-67
2024/04/01 00:45:44;;;;;;;8.65;4.38;;;12.40;80.90;;;;;;4990017;28;20432;-63
2024/04/01 00:48:13;;;;;;;5.60;3.30;;;12.40;80.90;;;;;;4990678;28;20023;-68
2024/04/01 00:50:43;;;;;;;9.32;4.85;;;12.40;80.90;;;;;;4990065;28;20038;-68
2024/04/01 00:53:10;;;;;;;6.55;3.53;;;12.40;80.80;;;;;;4990060;28;20026;-67
2024/04/01 00:55:39;;;;;;;6.18;3.85;;;12.30;80.70;;;;;;4989514;28;20505;-63
2024/04/01 00:58:05;;;;;;;8.30;4.43;;;12.30;80.60;;;;;;4989489;28;20057;-63
2024/04/01 01:00:33;;;;;;;5.13;3.67;;;12.30;80.60;;;;;;4990415;28;20023;-63
2024/04/01 01:03:00;;;;;;;5.07;4.00;;;12.30;80.60;;;;;;4989241;28;20460;-63
2024/04/01 01:05:27;;;;;;;5.38;4.22;;;12.30;80.60;;;;;;4957137;28;20035;-67
2024/04/01 01:07:54;;;;;;;5.95;4.03;;;12.20;80.50;;;;;;4989970;28;20092;-68
2024/04/01 01:10:22;;;;;;;10.85;5.03;;;12.20;80.60;;;;;;4990018;28;20384;-67
2024/04/01 01:12:48;;;;;;;5.78;3.75;;;12.20;81.10;;;;;;4968498;28;20093;-67
2024/04/01 01:15:14;;;;;;;5.93;4.05;;;12.20;80.60;;;;;;4981457;28;20030;-67
2024/04/01 01:17:40;;;;;;;6.80;4.32;;;12.10;80.60;;;;;;4983905;28;20050;-67
2024/04/01 01:20:11;;;;;;;7.68;4.60;;;12.10;80.70;;;;;;4988125;28;20457;-67
2024/04/01 01:22:41;;;;;;;6.30;4.05;;;12.10;80.60;;;;;;4966508;28;20517;-67
2024/04/01 01:25:07;;;;;;;7.32;3.97;;;12.10;80.70;;;;;;4986414;28;20562;-67
2024/04/01 01:27:37;;;;;;;5.50;3.50;;;12.10;80.70;;;;;;4990101;28;20489;-63
2024/04/01 01:30:14;;;;;;;7.00;3.40;;;12.10;80.70;;;;;;4990093;28;20031;-63
2024/04/01 01:32:45;;;;;;;5.55;4.10;;;12.10;80.70;;;;;;4988813;28;20026;-63
2024/04/01 01:35:13;;;;;;;6.13;3.93;;;12.10;80.70;;;;;;4986259;28;20120;-62
2024/04/01 01:37:39;;;;;;;9.82;4.30;;;12.10;80.70;;;;;;4986755;28;20485;-63
2024/04/01 01:40:06;;;;;;;5.47;3.50;;;12.10;80.70;;;;;;4979246;28;20362;-64
2024/04/01 01:42:36;;;;;;;5.45;3.40;;;12.10;80.80;;;;;;4971086;28;20053;-63
2024/04/01 01:45:03;;;;;;;4.97;3.40;;;12.10;80.80;;;;;;4989458;28;20018;-63
2024/04/01 01:47:34;;;;;;;5.65;3.00;;;12.00;80.80;;;;;;4989004;28;20046;-63
2024/04/01 01:50:02;;;;;;;5.63;3.85;;;12.00;80.80;;;;;;4984365;28;20393;-67
2024/04/01 01:52:28;;;;;;;4.38;3.10;;;12.00;80.80;;;;;;4985306;28;20026;-68
2024/04/01 01:54:54;;;;;;;5.53;3.70;;;12.00;80.80;;;;;;4983738;28;20053;-68
2024/04/01 01:57:20;;;;;;;6.22;3.67;;;12.00;80.70;;;;;;4981594;28;20585;-67
2024/04/01 01:59:46;;;;;;;4.32;2.92;;;12.00;80.70;;;;;;4969372;28;20110;-68
2024/04/01 02:02:12;;;;;;;5.22;2.78;;;12.00;80.70;;;;;;4980500;28;20166;-68
2024/04/01 02:04:38;;;;;;;4.47;3.55;;;12.00;80.70;;;;;;4985800;28;20026;-63
2024/04/01 02:07:05;;;;;;;5.78;3.65;;;11.90;80.60;;;;;;4960296;28;20030;-62
2024/04/01 02:09:32;;;;;;;4.25;2.67;;;11.90;80.70;;;;;;4972104;28;20034;-62
2024/04/01 02:11:59;;;;;;;4.38;3.10;;;11.90;80.70;;;;;;4990948;28;20041;-67
2024/04/01 02:14:25;;;;;;;4.85;3.47;;;11.90;80.80;;;;;;4993741;28;20065;-67
2024/04/01 02:16:51;;;;;;;5.05;3.17;;;11.90;80.80;;;;;;4992474;28;20551;-62
2024/04/01 02:19:16;;;;;;;6.00;2.70;;;11.90;80.80;;;;;;4993907;28;20027;-67
2024/04/01 02:21:44;;;;;;;3.83;2.97;;;11.90;80.80;;;;;;4992905;28;20117;-61
2024/04/01 02:24:20;;;;;;;4.22;2.67;;;11.90;80.80;;;;;;4988955;28;20030;-63
2024/04/01 02:26:53;;;;;;;3.83;2.40;;;11.90;80.80;;;;;;4984894;28;20022;-63
2024/04/01 02:29:20;;;;;;;4.03;2.33;;;11.90;80.90;;;;;;4988482;28;20027;-64
2024/04/01 02:31:46;;;;;;;7.82;3.10;;;11.90;81.00;;;;;;4969603;28;20449;-64
2024/04/01 02:34:12;;;;;;;4.00;3.33;;;11.90;80.90;;;;;;4986545;28;20022;-69
2024/04/01 02:36:37;;;;;;;4.85;2.83;;;11.90;80.90;;;;;;4994092;28;20089;-66
2024/04/01 02:39:04;;;;;;;5.28;3.17;;;11.90;80.90;;;;;;4989314;28;20049;-69
2024/04/01 02:41:31;;;;;;;3.28;2.58;;;11.90;80.90;;;;;;4993219;28;20026;-64
2024/04/01 02:43:57;;;;;;;3.80;2.95;;;11.80;80.90;;;;;;4973548;28;20033;-69
2024/04/01 02:46:23;;;;;;;4.75;3.30;;;11.80;80.90;;;;;;4993559;28;20117;-69
2024/04/01 02:48:49;;;;;;;2.78;2.25;;;11.80;81.00;;;;;;4992560;28;20453;-65
2024/04/01 02:51:14;;;;;;;5.57;3.85;;;11.80;80.90;;;;;;4993533;28;20531;-68
2024/04/01 02:53:47;;;;;;;6.85;2.75;;;11.80;80.90;;;;;;4990762;28;20097;-68
2024/04/01 02:56:16;;;;;;;2.83;2.30;;;11.80;81.00;;;;;;4992573;28;20035;-65
2024/04/01 02:58:45;;;;;;;6.13;3.35;;;11.80;81.00;;;;;;4972508;28;20037;-67
2024/04/01 03:01:12;;;;;;;4.63;3.03;;;11.70;81.10;;;;;;4992021;28;20472;-65
2024/04/01 03:03:38;;;;;;;4.00;2.95;;;11.70;81.20;;;;;;4959223;28;20027;-64
2024/04/01 03:06:06;;;;;;;4.10;2.65;;;11.70;81.20;;;;;;4989946;28;20569;-64
2024/04/01 03:08:32;;;;;;;3.38;2.38;;;11.70;81.30;;;;;;4975016;28;20441;-68
2024/04/01 03:11:02;;;;;;;5.00;2.55;;;11.70;81.30;;;;;;4992314;28;20117;-68
2024/04/01 03:13:29;;;;;;;3.15;2.85;;;11.60;81.20;;;;;;4992689;28;20029;-64
2024/04/01 03:15:56;;;;;;;3.88;2.88;;;11.60;81.20;;;;;;4993329;28;20042;-68
2024/04/01 03:18:23;;;;;;;5.10;3.33;;;11.60;81.30;;;;;;4993006;28;20623;-69
2024/04/01 03:20:50;;;;;;;4.10;2.67;;;11.60;81.30;;;;;;4987800;28;20023;-68
2024/04/01 03:23:16;;;;;;;3.42;2.65;;;11.60;81.40;;;;;;4991037;28;20034;-68
2024/04/01 03:25:48;;;;;;;3.92;2.45;;;11.60;81.50;;;;;;4974101;28;20084;-68
2024/04/01 03:28:14;;;;;;;3.22;2.47;;;11.50;81.50;;;;;;4982303;28;20053;-68
2024/04/01 03:30:40;;;;;;;3.75;3.13;;;11.50;81.50;;;;;;4992101;28;20026;-68
2024/04/01 03:33:12;;;;;;;4.13;2.38;;;11.50;81.40;;;;;;4970304;28;20770;-64
2024/04/01 03:35:38;;;;;;;2.88;2.58;;;11.50;81.50;;;;;;4992101;28;20031;-64
2024/04/01 03:38:04;;;;;;;4.38;2.40;;;11.50;81.50;;;;;;4991578;28;20121;-68
2024/04/01 03:40:30;;;;;;;3.13;2.60;;;11.40;81.40;;;;;;4990866;28;20105;-67
2024/04/01 03:42:56;;;;;;;3.15;2.15;;;11.40;81.40;;;;;;4991378;28;20066;-68
2024/04/01 03:45:22;;;;;;;3.30;2.40;;;11.40;81.40;;;;;;4991571;28;20043;-66
2024/04/01 03:47:47;;;;;;;3.30;2.53;;;11.40;81.30;;;;;;4991304;28;20105;-65
2024/04/01 03:50:13;;;;;;;3.55;2.55;;;11.40;81.40;;;;;;4991969;28;20046;-66
2024/04/01 03:52:39;;;;;;;3.33;2.95;;;11.40;81.40;;;;;;4990847;28;20038;-65
2024/04/01 03:55:05;;;;;;;3.65;2.70;;;11.40;81.40;;;;;;4974109;28;20129;-68
2024/04/01 03:57:31;;;;;;;4.05;2.28;;;11.40;81.40;;;;;;4970913;28;20041;-69
2024/04/01 03:59:57;;;;;;;4.25;2.88;;;11.30;81.40;;;;;;4971843;28;20396;-65
2024/04/01 04:02:23;;;;;;;5.45;2.47;;;11.40;81.40;;;;;;4989794;28;20034;-64
2024/04/01 04:04:48;;;;;;;2.80;2.25;;;11.40;81.50;;;;;;4991548;28;20434;-69
2024/04/01 04:07:15;;;;;;;3.42;2.38;;;11.40;81.50;;;;;;4991095;28;20366;-69
2024/04/01 04:09:41;;;;;;;2.30;2.10;;;11.40;81.50;;;;;;4991823;28;20028;-65
2024/04/01 04:12:07;;;;;;;2.83;2.53;;;11.40;81.50;;;;;;4990657;28;20121;-65
2024/04/01 04:14:33;;;;;;;4.47;2.70;;;11.30;81.50;;;;;;4973992;28;20030;-64
2024/04/01 04:16:59;;;;;;;3.65;2.60;;;11.30;81.40;;;;;;4991172;28;20062;-65
2024/04/01 04:19:25;;;;;;;3.22;2.15;;;11.30;81.40;;;;;;4990683;28;20069;-64
2024/04/01 04:21:51;;;;;;;3.63;2.88;;;11.30;81.50;;;;;;4984444;28;20053;-64
2024/04/01 04:24:24;;;;;;;3.65;2.70;;;11.30;81.50;;;;;;4971203;28;20034;-68
2024/04/01 04:26:51;;;;;;;3.30;1.92;;;11.30;81.60;;;;;;4970059;28;20137;-67
2024/04/01 04:29:16;;;;;;;3.58;2.38;;;11.30;81.60;;;;;;4966009;28;20096;-67
2024/04/01 04:31:57;;;;;;;3.30;2.15;;;11.20;81.60;;;;;;4972978;28;20555;-68
2024/04/01 04:34:23;;;;;;;3.05;2.00;;;11.30;81.60;;;;;;4969824;28;20081;-64
2024/04/01 04:36:50;;;;;;;2.10;1.90;;;11.20;81.70;;;;;;4970773;28;20440;-64
2024/04/01 04:39:24;;;;;;;2.22;1.65;;;11.20;81.80;;;;;;4990507;28;20030;-68
2024/04/01 04:41:53;;;;;;;6.35;2.72;;;11.20;81.80;;;;;;4987227;28;20388;-68
2024/04/01 04:44:22;;;;;;;3.13;2.17;;;11.20;81.80;;;;;;4983510;28;20030;-64
2024/04/01 04:46:48;;;;;;;3.35;2.50;;;11.20;81.70;;;;;;4988607;28;20034;-64
2024/04/01 04:49:14;;;;;;;2.90;2.10;;;11.20;81.70;;;;;;4991286;28;20453;-67
2024/04/01 04:51:40;;;;;;;2.63;1.85;;;11.20;81.70;;;;;;4990785;28;20050;-67
2024/04/01 04:54:12;;;;;;;4.93;2.40;;;11.20;81.80;;;;;;4984749;28;20564;-67
2024/04/01 04:56:38;;;;;;;;;;;11.20;81.80;;;;;;4986075;28;20393;-68
2024/04/01 04:59:04;;;;;;;5.05;2.50;;;11.20;81.80;;;;;;4972337;28;19914;-64
2024/04/01 05:01:31;;;;;;;4.13;2.15;;;11.20;81.80;;;;;;4991564;28;20022;-64
2024/04/01 05:04:01;;;;;;;4.72;2.67;;;11.20;81.70;;;;;;4985572;28;21085;-68
2024/04/01 05:06:26;;;;;;;2.13;1.52;;;11.20;81.70;;;;;;4989604;28;20448;-68
2024/04/01 05:08:53;;;;;;;3.60;2.20;;;11.20;81.70;;;;;;4989727;28;20062;-64
2024/04/01 05:11:18;;;;;;;2.45;1.90;;;11.30;81.80;;;;;;4983114;28;20080;-67
2024/04/01 05:13:44;;;;;;;2.22;1.95;;;11.20;81.90;;;;;;4989524;28;20484;-67
2024/04/01 05:16:14;;;;;;;2.72;2.00;;;11.30;82.00;;;;;;4988881;28;20034;-64
2024/04/01 05:18:41;;;;;;;4.30;2.75;;;11.30;82.10;;;;;;4988786;28;20022;-67
2024/04/01 05:21:07;;;;;;;3.20;1.77;;;11.30;82.20;;;;;;4986021;28;20088;-67
2024/04/01 05:23:35;;;;;;;2.50;2.15;;;11.30;82.30;;;;;;4983802;28;20065;-64
2024/04/01 05:26:01;;;;;;;3.33;2.20;;;11.30;82.20;;;;;;4946593;28;20112;-64
2024/04/01 05:28:27;;;;;;;2.78;2.08;;;11.30;82.30;;;;;;4990916;28;20026;-67
2024/04/01 05:30:53;;;;;;;3.38;1.63;;;11.30;82.30;;;;;;4989534;28;20121;-67
2024/04/01 05:33:22;;;;;;;2.88;2.13;;;11.30;82.40;;;;;;4984977;28;20038;-67
2024/04/01 05:35:51;;;;;;;3.83;2.40;;;11.30;82.30;;;;;;4989789;28;20053;-67
2024/04/01 05:38:17;;;;;;;2.10;1.35;;;11.40;82.40;;;;;;4968438;28;20034;-67
2024/04/01 05:40:42;;;;;;;2.67;1.98;;;11.40;82.30;;;;;;4970702;28;20042;-68
2024/04/01 05:43:08;;;;;;;1.58;1.40;;;11.40;82.30;;;;;;4972854;28;20101;-67
2024/04/01 05:45:34;;;;;;;3.35;1.40;;;11.40;82.20;;;;;;4968660;28;20038;-68
2024/04/01 05:47:59;;;;;;;4.32;2.28;;;11.40;82.20;;;;;;4990357;28;20076;-64
2024/04/01 05:50:26;;;;;;;4.15;1.92;;;11.40;82.30;;;;;;4973073;28;20104;-68
2024/04/01 05:52:52;;;;;;;3.08;1.20;;;11.50;82.30;;;;;;4988254;28;20031;-67
2024/04/01 05:55:18;;;;;;;2.95;2.05;;;11.50;82.30;;;;;;4986274;28;20054;-67
2024/04/01 05:57:44;;;;;;;1.45;1.13;;;11.50;82.30;;;;;;4987866;28;20077;-68
2024/04/01 06:00:10;;;;;;;2.30;1.35;;;11.50;82.40;;;;;;4971249;28;20034;-68
2024/04/01 06:02:35;;;;;;;2.22;1.33;;;11.50;82.40;;;;;;4962676;28;20030;-64
2024/04/01 06:05:01;;;;;;;1.38;1.02;;;11.60;82.50;;;;;;4969500;28;20374;-64
2024/04/01 06:07:28;;;;;;;3.92;1.30;;;11.60;82.40;;;;;;4978183;28;20061;-67
2024/04/01 06:10:00;;;;;;;2.63;1.40;;;11.60;82.40;;;;;;4959102;28;20034;-67
2024/04/01 06:12:29;;;;;;;3.88;1.60;;;11.60;82.40;;;;;;4982992;28;20034;-67
2024/04/01 06:14:55;;;;;;;1.73;1.50;;;11.60;82.40;;;;;;4982003;28;20037;-67
2024/04/01 06:17:21;;;;;;;3.13;1.73;;;11.70;82.50;;;;;;4971996;28;20031;-67
2024/04/01 06:19:46;;;;;;;3.13;1.30;;;11.70;82.50;;;;;;4989638;28;20496;-64
2024/04/01 06:22:12;;;;;;;5.10;1.70;;;11.70;82.50;;;;;;4988269;28;20109;-64
2024/04/01 06:24:38;;;;;;;1.58;1.27;;;11.70;82.50;;;;;;4969573;28;20501;-67
2024/04/01 06:27:05;;;;;;;1.17;1.08;;;11.70;82.50;;;;;;4989535;28;20037;-64
2024/04/01 06:29:31;;;;;;;1.75;1.48;;;11.80;82.50;;;;;;4987857;28;20085;-67
2024/04/01 06:31:57;;;;;;;2.17;1.40;;;11.80;82.50;;;;;;4986323;28;20122;-67
2024/04/01 06:34:23;;;;;;;2.42;1.33;;;11.80;82.50;;;;;;4989221;28;20137;-64
2024/04/01 06:36:50;;;;;;;2.45;1.50;;;11.80;82.60;;;;;;4971046;28;20469;-67
2024/04/01 06:39:16;;;;;;;2.15;1.58;;;11.90;82.60;;;;;;4988047;28;20027;-65
2024/04/01 06:41:42;;;;;;;7.97;1.73;;;11.90;82.70;;;;;;4987108;28;20428;-66
2024/04/01 06:44:08;;;;;;;1.63;0.93;;;11.90;82.70;;;;;;4984786;28;20019;-65
2024/04/01 06:46:33;;;;;;;1.77;1.30;;;11.90;82.70;;;;;;4985200;28;20042;-66
2024/04/01 06:48:59;;;;;;;1.80;1.55;;;11.90;82.70;;;;;;4972894;28;20035;-65
2024/04/01 06:51:24;;;;;;;1.80;1.10;;;12.00;82.70;;;;;;4988225;28;20113;-64
2024/04/01 06:53:50;;;;;;;1.80;1.15;;;12.00;82.80;;;;;;4986169;28;20528;-65
2024/04/01 06:56:16;;;;;;;2.15;1.40;;;12.00;82.80;;;;;;4990165;28;20030;-65
2024/04/01 06:58:41;;;;;;;3.70;1.90;;;12.00;82.90;;;;;;4990198;28;20034;-65
2024/04/01 07:01:08;;;;;;;1.35;1.25;;;12.00;82.90;;;;;;4992470;28;20114;-65
2024/04/01 07:03:33;;;;;;;1.98;1.55;;;12.10;83.60;;;;;;4975590;28;20030;-66
2024/04/01 07:05:59;;;;;;;3.25;2.03;;;12.10;83.00;;;;;;4992423;28;20798;-67
2024/04/01 07:08:25;;;;;;;2.33;1.52;;;12.10;83.00;;;;;;4990655;28;20113;-67
2024/04/01 07:10:50;;;;;;;1.50;1.10;;;12.20;83.10;;;;;;4992662;28;20077;-67
2024/04/01 07:13:16;;;;;;;2.08;1.45;;;12.20;83.00;;;;;;4974408;28;20085;-67
2024/04/01 07:15:41;;;;;;;1.45;1.33;;;12.20;83.40;;;;;;4992283;28;20489;-67
2024/04/01 07:18:07;;;;;;;2.67;1.92;;;12.30;83.10;;;;;;4992273;28;20041;-67
2024/04/01 07:20:33;;;;;;;2.90;1.80;;;12.30;83.10;;;;;;4992370;28;20043;-67
2024/04/01 07:22:58;;;;;;;2.35;1.58;;;12.30;83.10;;;;;;4991742;28;20023;-67
2024/04/01 07:25:24;;;;;;;3.40;2.38;;;12.30;83.10;;;;;;4991313;28;20053;-67
2024/04/01 07:27:49;;;;;;;3.85;1.77;;;12.40;83.10;;;;;;4990102;28;20031;-67
2024/04/01 07:30:15;;;;;;;2.78;1.95;;;12.40;83.10;;;;;;4987955;28;20065;-68
2024/04/01 07:32:41;;;;;;;2.75;1.90;;;12.40;83.20;;;;;;4986741;28;20030;-67
2024/04/01 07:35:07;;;;;;;4.65;1.83;;;12.40;83.20;;;;;;4991208;28;20023;-67
2024/04/01 07:37:33;;;;;;;2.58;1.95;;;12.50;83.10;;;;;;4988976;28;20039;-66
2024/04/01 07:39:59;;;;;;;2.13;1.48;;;12.50;83.20;;;;;;4990645;28;20025;-65
2024/04/01 07:42:25;;;;;;;2.13;1.40;;;12.50;83.20;;;;;;4968214;28;20039;-65
2024/04/01 07:44:51;;;;;;;2.55;1.70;;;12.50;83.10;;;;;;4991550;28;20392;-65
2024/04/01 07:47:18;;;;;;;1.88;1.38;;;12.50;83.20;;;;;;4988341;28;20117;-64
2024/04/01 07:49:44;;;;;;;1.50;1.10;;;12.50;83.30;;;;;;4991000;28;20117;-63
2024/04/01 07:52:10;;;;;;;1.30;1.05;;;12.40;83.40;;;;;;4991328;28;20117;-63
2024/04/01 07:54:36;;;;;;;2.30;1.15;;;12.40;83.40;;;;;;4973827;28;20058;-64
2024/04/01 07:57:02;;;;;;;1.33;1.02;;;12.40;83.40;;;;;;4974748;28;20046;-65
2024/04/01 07:59:32;;;;;;;0.98;0.85;;;12.40;83.60;;;;;;4974729;28;20035;-64
2024/04/01 08:02:00;;;;;;;1.55;1.20;;;12.30;83.70;;;;;;4991319;28;20088;-66
2024/04/01 08:04:27;;;;;;;0.82;0.73;;;12.30;83.90;;;;;;4990580;28;20212;-64
2024/04/01 08:06:53;;;;;;;1.23;0.90;;;12.30;83.90;;;;;;4967349;28;20043;-65
2024/04/01 08:09:19;;;;;;;1.60;0.65;;;12.30;83.90;;;;;;4988759;28;20038;-69
2024/04/01 08:11:49;;;;;;;2.13;0.93;;;12.30;83.80;;;;;;4991225;28;20045;-62
2024/04/01 08:14:15;;;;;;;1.30;1.00;;;12.30;83.90;;;;;;4991401;28;20026;-63
2024/04/01 08:16:44;;;;;;;1.05;0.63;;;12.40;84.40;;;;;;4986453;28;20034;-69
2024/04/01 08:19:10;;;;;;;2.42;0.82;;;12.40;83.70;;;;;;4991744;28;20026;-68
2024/04/01 08:21:36;;;;;;;1.77;0.95;;;12.40;83.70;;;;;;4990556;28;20046;-69
2024/04/01 08:24:02;;;;;;;1.60;0.98;;;12.40;83.70;;;;;;4990787;28;20037;-69
2024/04/01 08:26:28;;;;;;;1.75;1.50;;;12.40;83.80;;;;;;4990269;28;20392;-70
2024/04/01 08:28:54;;;;;;;1.02;0.80;;;12.40;83.80;;;;;;4991348;28;20034;-69
2024/04/01 08:31:19;;;;;;;1.65;1.48;;;12.40;83.90;;;;;;4964739;28;20032;-68
2024/04/01 08:33:45;;;;;;;1.20;0.85;;;12.40;83.80;;;;;;4991011;28;20038;-69
2024/04/01 08:36:11;;;;;;;1.42;1.33;;;12.30;84.00;;;;;;4990260;28;20096;-68
2024/04/01 08:38:36;;;;;;;2.22;1.27;;;12.30;84.10;;;;;;4972571;28;20026;-68
2024/04/01 08:41:24;;;;;;;3.38;1.02;;;12.30;84.20;;;;;;4989559;28;20035;-68
2024/04/01 08:44:13;;;;;;;1.67;0.80;;;12.30;84.10;;;;;;4985568;28;20653;-64
2024/04/01 08:46:52;;;;;;;5.13;1.48;;;12.40;84.20;;;;;;4987300;28;20382;-64
2024/04/01 08:49:43;;;;;;;2.92;1.48;;;12.30;84.50;;;;;;4990670;28;20038;-64
2024/04/01 08:52:13;;;;;;;1.45;1.33;;;12.30;84.50;;;;;;4989715;28;20468;-63
2024/04/01 08:54:40;;;;;;;1.98;1.70;;;12.30;84.50;;;;;;4989183;28;20042;-64
2024/04/01 08:57:06;;;;;;;1.35;0.93;;;12.40;84.50;;;;;;4984833;28;20034;-68
2024/04/01 08:59:32;;;;;;;2.35;1.70;;;12.40;84.40;;;;;;4981795;28;20432;-68
2024/04/01 09:01:59;;;;;;;2.40;1.58;;;12.40;84.40;;;;;;4985523;28;20015;-64
2024/04/01 09:04:25;;;;;;;3.95;1.50;;;12.30;84.60;;;;;;4988490;28;20050;-64
2024/04/01 09:06:50;;;;;;;2.60;1.48;;;12.40;84.70;;;;;;4965917;28;20092;-64
2024/04/01 09:09:16;;;;;;;1.38;1.23;;;12.30;84.60;;;;;;4987389;28;20046;-66
2024/04/01 09:11:43;;;;;;;2.13;1.80;;;12.40;84.70;;;;;;4988751;28;20493;-65
2024/04/01 09:14:09;;;;;;;2.00;1.48;;;12.40;84.70;;;;;;4981806;28;20046;-68
2024/04/01 09:16:35;;;;;;;3.03;2.00;;;12.40;85.10;;;;;;4984291;28;20070;-64
2024/04/01 09:19:07;;;;;;;3.85;1.58;;;12.40;85.00;;;;;;4989237;28;20038;-64
2024/04/01 09:21:33;;;;;;;3.55;2.13;;;12.40;85.00;;;;;;4987405;28;20034;-64
2024/04/01 09:23:58;;;;;;;2.95;2.17;;;12.40;85.00;;;;;;4978265;28;20120;-64
2024/04/01 09:26:32;;;;;;;1.73;1.40;;;12.40;85.00;;;;;;4960165;28;20040;-64
2024/04/01 09:28:58;;;;;;;1.92;1.70;;;12.40;85.00;;;;;;4973067;28;20026;-64
2024/04/01 09:31:24;;;;;;;2.80;2.00;;;12.40;85.00;;;;;;4986477;28;20037;-65
2024/04/01 09:33:50;;;;;;;2.95;1.80;;;12.40;85.00;;;;;;4986498;28;20057;-68
2024/04/01 09:36:16;;;;;;;2.72;1.75;;;12.50;85.10;;;;;;4983761;28;20488;-69
2024/04/01 09:38:44;;;;;;;3.10;1.55;;;12.50;85.00;;;;;;4982573;28;20101;-68
2024/04/01 09:41:10;;;;;;;1.67;1.35;;;12.60;85.00;;;;;;4986666;28;20240;-68
2024/04/01 09:43:36;;;;;;;2.08;1.50;;;12.60;84.90;;;;;;4986826;28;20034;-69
2024/04/01 09:46:02;;;;;;;2.13;1.40;;;12.70;84.80;;;;;;4979964;28;20026;-64
2024/04/01 09:48:30;;;;;;;2.17;1.67;;;12.70;84.60;;;;;;4990817;28;20030;-68
2024/04/01 09:50:59;;;;;;;2.75;1.50;;;12.70;84.60;;;;;;4986633;28;20045;-68
2024/04/01 09:53:26;;;;;;;3.50;1.90;;;12.60;85.30;;;;;;4960192;28;20065;-68
2024/04/01 09:56:00;;;;;;;2.30;1.40;;;12.60;84.80;;;;;;4971678;28;21096;-64
2024/04/01 09:59:21;;;;;;;1.67;1.35;;;12.60;84.90;;;;;;4984603;28;20030;-64
2024/04/01 10:01:58;;;;;;;3.42;2.10;;;12.70;84.90;;;;;;4936747;28;20035;-63
2024/04/01 10:04:57;;;;;;;1.92;1.40;;;12.70;85.00;;;;;;4981666;28;20035;-64
2024/04/01 10:07:34;;;;;;;2.25;1.73;;;12.70;84.90;;;;;;4983400;28;20096;-69
2024/04/01 10:10:39;;;;;;;2.72;1.60;;;12.70;84.80;;;;;;4975508;28;20192;-68
2024/04/01 10:13:25;;;;;;;1.92;1.38;;;12.70;84.70;;;;;;4981544;28;20568;-67
2024/04/01 10:16:16;;;;;;;2.50;1.77;;;12.70;84.80;;;;;;4981108;28;20038;-68
2024/04/01 10:18:44;;;;;;;2.05;1.30;;;12.80;84.80;;;;;;4982001;28;20031;-68
2024/04/01 10:21:30;;;;;;;2.45;1.75;;;12.80;84.80;;;;;;4963998;28;20123;-68
2024/04/01 10:24:28;;;;;;;2.25;1.73;;;12.80;84.80;;;;;;4988176;28;20038;-67
2024/04/01 10:27:33;;;;;;;2.10;1.77;;;12.80;84.80;;;;;;4983997;28;20026;-68
2024/04/01 10:30:14;;;;;;;1.67;1.58;;;12.80;84.80;;;;;;4981518;28;20023;-68
2024/04/01 10:32:59;;;;;;;2.10;1.40;;;12.80;84.80;;;;;;4987240;28;20093;-68
2024/04/01 10:35:51;;;;;;;4.53;1.80;;;12.90;84.80;;;;;;4987418;28;20040;-67
2024/04/01 10:38:50;;;;;;;1.92;1.55;;;12.90;85.30;;;;;;4986243;28;20061;-67
2024/04/01 10:41:37;;;;;;;1.80;1.52;;;12.90;84.60;;;;;;4987387;28;20548;-69
2024/04/01 10:44:39;;;;;;;3.03;1.35;;;12.90;84.70;;;;;;4985963;28;20038;-67
2024/04/01 10:47:23;;;;;;;3.13;1.50;;;13.00;84.60;;;;;;4981569;28;20026;-67
2024/04/01 10:49:55;;;;;;;2.33;1.48;;;12.90;84.50;;;;;;4983730;28;20034;-64
2024/04/01 10:52:44;;;;;;;1.95;1.23;;;13.00;84.50;;;;;;4985705;28;20460;-65
2024/04/01 10:55:32;;;;;;;2.92;1.80;;;13.00;84.30;;;;;;4984013;28;20080;-64
2024/04/01 10:58:15;;;;;;;2.60;1.85;;;13.10;84.20;;;;;;4989818;28;20034;-64
2024/04/01 11:01:19;;;;;;;3.90;1.80;;;13.00;83.90;;;;;;4990061;28;20150;-64
2024/04/01 11:04:03;;;;;;;1.35;1.20;;;13.00;84.10;;;;;;4987997;28;20113;-68
2024/04/01 11:06:52;;;;;;;1.42;1.30;;;12.90;84.30;;;;;;4998353;28;20030;-63
2024/04/01 11:09:48;;;;;;;2.78;1.92;;;13.00;84.30;;;;;;4989094;28;20129;-63
2024/04/01 11:13:01;;;;;;;2.75;2.03;;;13.00;83.90;;;;;;4990655;28;20037;-63
2024/04/01 11:15:26;;;;;;;;;;;13.10;83.50;;;;;;4983471;28;20034;-66
2024/04/01 11:18:10;;;;;;;2.30;1.75;;;13.10;83.70;;;;;;4992314;28;20065;-65
2024/04/01 11:20:51;;;;;;;2.47;1.23;;;13.20;83.50;;;;;;4997045;28;20477;-65
2024/04/01 11:23:20;;;;;;;2.22;1.80;;;13.20;83.20;;;;;;4989845;28;20067;-65
2024/04/01 11:26:09;;;;;;;2.90;1.90;;;13.30;83.00;;;;;;4989151;28;20100;-65
2024/04/01 11:28:54;;;;;;;2.25;1.33;;;13.30;82.90;;;;;;4988521;28;20066;-65
2024/04/01 11:31:26;;;;;;;2.72;1.60;;;13.20;82.80;;;;;;4997654;28;20030;-65
2024/04/01 11:34:01;;;;;;;;;;;13.20;82.90;;;;;;4991281;28;20045;-65
2024/04/01 11:37:02;;;;;;;2.28;1.88;;;13.20;82.70;;;;;;4973133;28;19923;-68
2024/04/01 11:39:31;;;;;;;2.22;1.98;;;13.00;82.90;;;;;;4978346;28;20467;-68
2024/04/01 11:42:01;;;;;;;4.50;2.10;;;13.00;83.20;;;;;;4989589;28;20072;-65
2024/04/01 11:44:29;;;;;;;3.13;1.92;;;12.90;83.70;;;;;;5001695;28;20126;-65
2024/04/01 11:46:58;;;;;;;2.63;2.03;;;12.90;83.30;;;;;;4987971;28;20046;-66
2024/04/01 11:49:23;;;;;;;2.72;2.08;;;12.90;83.10;;;;;;4991250;28;20340;-68
2024/04/01 11:51:53;;;;;;;4.82;2.50;;;12.90;83.10;;;;;;4991062;28;20113;-68
2024/04/01 11:54:26;;;;;;;3.33;2.60;;;13.00;83.20;;;;;;4988338;28;20042;-68
2024/04/01 11:56:54;;;;;;;12.95;3.05;;;13.00;82.80;;;;;;4987293;28;20496;-68
2024/04/01 11:59:31;;;;;;;3.13;2.17;;;13.00;82.70;;;;;;4978600;28;20378;-65
2024/04/01 12:01:57;;;;;;;6.85;1.42;;;13.10;82.80;;;;;;4984006;28;20036;-68
2024/04/01 12:04:23;;;;;;;2.00;1.52;;;13.20;82.60;;;;;;4981546;28;20030;-69
2024/04/01 12:06:50;;;;;;;2.42;1.83;;;13.40;82.40;;;;;;4983214;28;20448;-67
2024/04/01 12:09:18;;;;;;;2.05;1.52;;;13.50;82.20;;;;;;4967760;28;20046;-69
2024/04/01 12:11:45;;;;;;;2.17;1.50;;;13.60;81.70;;;;;;4981044;28;20493;-67
2024/04/01 12:14:12;;;;;;;2.67;1.52;;;13.60;81.20;;;;;;4986975;28;20444;-68
2024/04/01 12:16:37;;;;;;;3.38;1.60;;;13.70;81.30;;;;;;4981533;28;20037;-64
2024/04/01 12:19:07;;;;;;;5.82;1.40;;;13.80;80.50;;;;;;4988998;28;20026;-63
2024/04/01 12:21:40;;;;;;;2.72;1.70;;;13.80;80.40;;;;;;4976284;28;20023;-66
2024/04/01 12:24:05;;;;;;;;;;;13.90;79.80;;;;;;4989862;28;20025;-68
2024/04/01 12:26:38;;;;;;;3.55;1.38;;;14.00;78.90;;;;;;4983999;28;20589;-67
2024/04/01 12:29:07;;;;;;;1.77;1.15;;;13.90;78.40;;;;;;4966432;28;20077;-68
2024/04/01 12:31:35;;;;;;;1.65;1.27;;;14.10;78.50;;;;;;4968343;28;20034;-67
2024/04/01 12:34:02;;;;;;;2.70;1.58;;;14.30;77.80;;;;;;4990142;28;20033;-67
2024/04/01 12:36:31;;;;;;;1.90;1.08;;;14.60;77.40;;;;;;4992019;28;20042;-68
2024/04/01 12:38:57;;;;;;;6.40;1.50;;;14.70;76.40;;;;;;4994521;28;20034;-68
2024/04/01 12:41:26;;;;;;;1.27;1.10;;;14.80;76.00;;;;;;4971234;28;20093;-66
2024/04/01 12:43:53;;;;;;;4.30;1.25;;;14.90;74.70;;;;;;4995456;28;20034;-68
2024/04/01 12:46:22;;;;;;;2.08;1.13;;;15.00;74.60;;;;;;4970952;28;20316;-68
2024/04/01 12:48:53;;;;;;;2.17;1.02;;;15.20;74.20;;;;;;4994164;28;20116;-69
2024/04/01 12:51:25;;;;;;;2.05;0.80;;;15.30;73.40;;;;;;4987611;28;20026;-67
2024/04/01 12:54:02;;;;;;;9.23;1.13;;;15.30;73.00;;;;;;4990622;28;20049;-68
2024/04/01 12:56:41;;;;;;;1.50;0.93;;;15.10;72.90;;;;;;4976320;28;20034;-64
2024/04/01 12:59:15;;;;;;;1.63;0.95;;;15.10;73.10;;;;;;4984754;28;20507;-64
2024/04/01 13:01:51;;;;;;;3.80;1.23;;;15.10;73.30;;;;;;4988001;28;20471;-64